sensor_id;sensor_type;location;lat;lon;timestamp;pressure;altitude;pressure_sealevel;temperature;humidity
24558;BME280;12726;49.148;8.582;2022-07-29T00:01:21;100112.69;;;21.62;59.56
24558;BME280;12726;49.148;8.582;2022-07-29T00:04:06;100097.78;;;21.49;59.70
24558;BME280;12726;49.148;8.582;2022-07-29T00:06:53;100105.81;;;21.40;59.68
24558;BME280;12726;49.148;8.582;2022-07-29T00:09:38;100091.66;;;21.33;60.23
24558;BME280;12726;49.148;8.582;2022-07-29T00:12:24;100090.81;;;21.38;60.31
24558;BME280;12726;49.148;8.582;2022-07-29T00:15:10;100084.88;;;21.26;60.67
24558;BME280;12726;49.148;8.582;2022-07-29T00:17:55;100091.16;;;21.31;61.07
24558;BME280;12726;49.148;8.582;2022-07-29T00:20:41;100098.94;;;21.19;61.42
24558;BME280;12726;49.148;8.582;2022-07-29T00:23:28;100095.19;;;21.10;61.51
24558;BME280;12726;49.148;8.582;2022-07-29T00:26:13;100099.34;;;21.02;61.96
24558;BME280;12726;49.148;8.582;2022-07-29T00:28:59;100096.16;;;20.95;62.31
24558;BME280;12726;49.148;8.582;2022-07-29T00:31:47;100094.72;;;20.98;62.16
24558;BME280;12726;49.148;8.582;2022-07-29T00:34:32;100090.97;;;20.94;62.53
24558;BME280;12726;49.148;8.582;2022-07-29T00:37:34;100077.03;;;20.90;62.80
24558;BME280;12726;49.148;8.582;2022-07-29T00:40:21;100089.88;;;20.90;62.96
24558;BME280;12726;49.148;8.582;2022-07-29T00:43:07;100093.16;;;20.92;63.31
24558;BME280;12726;49.148;8.582;2022-07-29T00:45:53;100084.81;;;21.07;64.05
24558;BME280;12726;49.148;8.582;2022-07-29T00:48:38;100084.50;;;21.08;63.67
24558;BME280;12726;49.148;8.582;2022-07-29T00:51:25;100074.94;;;21.06;63.35
24558;BME280;12726;49.148;8.582;2022-07-29T00:54:12;100079.03;;;21.08;63.65
24558;BME280;12726;49.148;8.582;2022-07-29T00:56:59;100075.19;;;21.09;63.73
24558;BME280;12726;49.148;8.582;2022-07-29T00:59:44;100072.00;;;21.02;63.57
24558;BME280;12726;49.148;8.582;2022-07-29T01:02:30;100072.06;;;20.92;63.83
24558;BME280;12726;49.148;8.582;2022-07-29T01:05:17;100065.84;;;20.87;63.95
24558;BME280;12726;49.148;8.582;2022-07-29T01:08:03;100063.16;;;20.82;64.37
24558;BME280;12726;49.148;8.582;2022-07-29T01:10:50;100064.63;;;20.69;64.49
24558;BME280;12726;49.148;8.582;2022-07-29T01:13:38;100058.72;;;20.57;65.12
24558;BME280;12726;49.148;8.582;2022-07-29T01:16:30;100063.63;;;20.60;65.52
24558;BME280;12726;49.148;8.582;2022-07-29T01:19:33;100059.28;;;20.54;66.07
24558;BME280;12726;49.148;8.582;2022-07-29T01:22:28;100061.03;;;20.45;66.71
24558;BME280;12726;49.148;8.582;2022-07-29T01:25:31;100050.09;;;20.45;67.32
24558;BME280;12726;49.148;8.582;2022-07-29T01:28:39;100057.22;;;20.41;67.69
24558;BME280;12726;49.148;8.582;2022-07-29T01:31:35;100053.94;;;20.44;67.92
24558;BME280;12726;49.148;8.582;2022-07-29T01:34:29;100053.66;;;20.45;68.35
24558;BME280;12726;49.148;8.582;2022-07-29T01:37:20;100059.38;;;20.44;68.32
24558;BME280;12726;49.148;8.582;2022-07-29T01:40:11;100052.00;;;20.44;68.71
24558;BME280;12726;49.148;8.582;2022-07-29T01:43:03;100050.31;;;20.48;68.71
24558;BME280;12726;49.148;8.582;2022-07-29T01:45:56;100041.00;;;20.49;68.91
24558;BME280;12726;49.148;8.582;2022-07-29T01:48:47;100043.00;;;20.44;69.13
24558;BME280;12726;49.148;8.582;2022-07-29T01:51:40;100044.91;;;20.43;69.78
24558;BME280;12726;49.148;8.582;2022-07-29T01:54:32;100052.22;;;20.48;69.35
24558;BME280;12726;49.148;8.582;2022-07-29T01:57:21;100035.59;;;20.44;69.71
24558;BME280;12726;49.148;8.582;2022-07-29T02:00:09;100046.75;;;20.48;69.59
24558;BME280;12726;49.148;8.582;2022-07-29T02:02:57;100044.31;;;20.46;69.57
24558;BME280;12726;49.148;8.582;2022-07-29T02:05:45;100039.72;;;20.42;69.34
24558;BME280;12726;49.148;8.582;2022-07-29T02:08:33;100044.09;;;20.43;69.34
24558;BME280;12726;49.148;8.582;2022-07-29T02:11:19;100044.38;;;20.41;69.53
24558;BME280;12726;49.148;8.582;2022-07-29T02:14:05;100047.09;;;20.41;69.59
24558;BME280;12726;49.148;8.582;2022-07-29T02:16:54;100038.06;;;20.41;69.19
24558;BME280;12726;49.148;8.582;2022-07-29T02:19:43;100048.72;;;20.42;69.11
24558;BME280;12726;49.148;8.582;2022-07-29T02:22:31;100057.25;;;20.36;69.88
24558;BME280;12726;49.148;8.582;2022-07-29T02:25:19;100054.81;;;20.34;69.74
24558;BME280;12726;49.148;8.582;2022-07-29T02:28:07;100056.16;;;20.37;70.07
24558;BME280;12726;49.148;8.582;2022-07-29T02:30:53;100049.88;;;20.36;70.23
24558;BME280;12726;49.148;8.582;2022-07-29T02:33:41;100048.25;;;20.35;69.76
24558;BME280;12726;49.148;8.582;2022-07-29T02:36:29;100050.16;;;20.35;70.17
24558;BME280;12726;49.148;8.582;2022-07-29T02:39:15;100054.25;;;20.32;70.65
24558;BME280;12726;49.148;8.582;2022-07-29T02:42:05;100060.53;;;20.32;70.87
24558;BME280;12726;49.148;8.582;2022-07-29T02:44:52;100057.28;;;20.30;70.76
24558;BME280;12726;49.148;8.582;2022-07-29T02:47:41;100050.22;;;20.24;70.87
24558;BME280;12726;49.148;8.582;2022-07-29T02:50:32;100056.81;;;20.18;71.27
24558;BME280;12726;49.148;8.582;2022-07-29T02:53:23;100059.53;;;20.18;71.43
24558;BME280;12726;49.148;8.582;2022-07-29T02:56:13;100063.94;;;20.14;71.59
24558;BME280;12726;49.148;8.582;2022-07-29T02:59:04;100067.28;;;20.06;72.43
24558;BME280;12726;49.148;8.582;2022-07-29T03:01:51;100061.03;;;20.01;72.39
24558;BME280;12726;49.148;8.582;2022-07-29T03:04:40;100063.22;;;19.99;71.90
24558;BME280;12726;49.148;8.582;2022-07-29T03:07:27;100063.50;;;19.97;72.48
24558;BME280;12726;49.148;8.582;2022-07-29T03:10:14;100068.72;;;19.93;72.78
24558;BME280;12726;49.148;8.582;2022-07-29T03:13:00;100069.00;;;19.92;72.50
24558;BME280;12726;49.148;8.582;2022-07-29T03:15:46;100062.72;;;19.91;73.12
24558;BME280;12726;49.148;8.582;2022-07-29T03:18:33;100067.94;;;19.88;73.32
24558;BME280;12726;49.148;8.582;2022-07-29T03:21:18;100062.25;;;19.79;73.86
24558;BME280;12726;49.148;8.582;2022-07-29T03:24:04;100067.16;;;19.77;74.01
24558;BME280;12726;49.148;8.582;2022-07-29T03:26:51;100068.06;;;19.68;74.21
24558;BME280;12726;49.148;8.582;2022-07-29T03:29:37;100065.59;;;19.66;74.78
24558;BME280;12726;49.148;8.582;2022-07-29T03:32:23;100061.25;;;19.60;74.79
24558;BME280;12726;49.148;8.582;2022-07-29T03:35:08;100057.72;;;19.54;75.16
24558;BME280;12726;49.148;8.582;2022-07-29T03:37:54;100060.47;;;19.49;75.65
24558;BME280;12726;49.148;8.582;2022-07-29T03:40:44;100066.22;;;19.43;76.13
24558;BME280;12726;49.148;8.582;2022-07-29T03:43:36;100071.16;;;19.36;76.25
24558;BME280;12726;49.148;8.582;2022-07-29T03:46:23;100060.25;;;19.31;76.47
24558;BME280;12726;49.148;8.582;2022-07-29T03:49:14;100064.63;;;19.27;76.78
24558;BME280;12726;49.148;8.582;2022-07-29T03:51:59;100067.91;;;19.24;77.05
24558;BME280;12726;49.148;8.582;2022-07-29T03:54:45;100054.84;;;19.15;77.07
24558;BME280;12726;49.148;8.582;2022-07-29T03:57:32;100071.47;;;19.19;77.48
24558;BME280;12726;49.148;8.582;2022-07-29T04:00:20;100069.28;;;19.21;77.26
24558;BME280;12726;49.148;8.582;2022-07-29T04:03:05;100074.50;;;19.17;77.33
24558;BME280;12726;49.148;8.582;2022-07-29T04:05:58;100067.41;;;19.16;77.47
24558;BME280;12726;49.148;8.582;2022-07-29T04:08:44;100075.00;;;19.20;77.82
24558;BME280;12726;49.148;8.582;2022-07-29T04:11:30;100075.59;;;19.16;77.67
24558;BME280;12726;49.148;8.582;2022-07-29T04:14:15;100073.66;;;19.12;77.70
24558;BME280;12726;49.148;8.582;2022-07-29T04:17:03;100079.97;;;19.07;78.15
24558;BME280;12726;49.148;8.582;2022-07-29T04:19:49;100081.31;;;19.05;78.30
24558;BME280;12726;49.148;8.582;2022-07-29T04:22:35;100084.06;;;19.05;78.54
24558;BME280;12726;49.148;8.582;2022-07-29T04:25:20;100077.50;;;19.06;78.99
24558;BME280;12726;49.148;8.582;2022-07-29T04:28:06;100079.16;;;19.02;78.94
24558;BME280;12726;49.148;8.582;2022-07-29T04:30:52;100089.25;;;19.01;78.64
24558;BME280;12726;49.148;8.582;2022-07-29T04:33:39;100079.41;;;19.05;78.63
24558;BME280;12726;49.148;8.582;2022-07-29T04:36:24;100085.69;;;19.11;78.55
24558;BME280;12726;49.148;8.582;2022-07-29T04:39:09;100097.69;;;19.15;78.31
24558;BME280;12726;49.148;8.582;2022-07-29T04:41:55;100088.66;;;19.20;78.63
24558;BME280;12726;49.148;8.582;2022-07-29T04:44:41;100085.66;;;19.21;78.36
24558;BME280;12726;49.148;8.582;2022-07-29T04:47:26;100093.00;;;19.26;78.48
24558;BME280;12726;49.148;8.582;2022-07-29T04:50:13;100088.38;;;19.31;78.37
24558;BME280;12726;49.148;8.582;2022-07-29T04:52:58;100096.50;;;19.41;77.87
24558;BME280;12726;49.148;8.582;2022-07-29T04:55:44;100096.53;;;19.51;77.84
24558;BME280;12726;49.148;8.582;2022-07-29T04:58:29;100106.28;;;19.63;77.30
24558;BME280;12726;49.148;8.582;2022-07-29T05:01:15;100110.34;;;19.75;76.84
24558;BME280;12726;49.148;8.582;2022-07-29T05:04:00;100112.75;;;19.87;76.74
24558;BME280;12726;49.148;8.582;2022-07-29T05:06:47;100109.41;;;20.00;76.28
24558;BME280;12726;49.148;8.582;2022-07-29T05:09:32;100110.13;;;20.16;75.41
24558;BME280;12726;49.148;8.582;2022-07-29T05:12:18;100115.50;;;20.31;74.93
24558;BME280;12726;49.148;8.582;2022-07-29T05:15:04;100115.19;;;20.43;74.20
24558;BME280;12726;49.148;8.582;2022-07-29T05:17:50;100118.97;;;20.47;73.75
24558;BME280;12726;49.148;8.582;2022-07-29T05:20:35;100125.25;;;20.47;73.83
24558;BME280;12726;49.148;8.582;2022-07-29T05:23:22;100109.16;;;20.41;73.51
24558;BME280;12726;49.148;8.582;2022-07-29T05:26:07;100115.72;;;20.45;73.56
24558;BME280;12726;49.148;8.582;2022-07-29T05:28:53;100115.72;;;20.45;74.04
24558;BME280;12726;49.148;8.582;2022-07-29T05:31:39;100107.69;;;20.53;73.71
24558;BME280;12726;49.148;8.582;2022-07-29T05:34:24;100111.78;;;20.56;73.61
24558;BME280;12726;49.148;8.582;2022-07-29T05:37:09;100113.38;;;20.62;73.36
24558;BME280;12726;49.148;8.582;2022-07-29T05:39:58;100114.09;;;20.78;72.55
24558;BME280;12726;49.148;8.582;2022-07-29T05:42:44;100130.41;;;20.88;72.18
24558;BME280;12726;49.148;8.582;2022-07-29T05:45:29;100130.50;;;21.06;71.65
24558;BME280;12726;49.148;8.582;2022-07-29T05:48:15;100132.03;;;21.23;71.31
24558;BME280;12726;49.148;8.582;2022-07-29T05:51:01;100129.28;;;21.46;70.52
24558;BME280;12726;49.148;8.582;2022-07-29T05:53:46;100132.84;;;21.71;67.64
24558;BME280;12726;49.148;8.582;2022-07-29T05:56:33;100129.00;;;21.72;65.75
24558;BME280;12726;49.148;8.582;2022-07-29T05:59:20;100135.97;;;21.64;64.53
24558;BME280;12726;49.148;8.582;2022-07-29T06:02:06;100130.66;;;21.49;65.45
24558;BME280;12726;49.148;8.582;2022-07-29T06:04:53;100144.47;;;21.63;65.23
24558;BME280;12726;49.148;8.582;2022-07-29T06:07:38;100145.91;;;21.79;64.86
24558;BME280;12726;49.148;8.582;2022-07-29T06:10:23;100149.91;;;22.10;64.44
24558;BME280;12726;49.148;8.582;2022-07-29T06:13:10;100148.22;;;22.14;62.79
24558;BME280;12726;49.148;8.582;2022-07-29T06:15:56;100156.66;;;22.18;62.98
24558;BME280;12726;49.148;8.582;2022-07-29T06:18:41;100147.84;;;22.40;62.14
24558;BME280;12726;49.148;8.582;2022-07-29T06:21:27;100148.72;;;22.54;61.57
24558;BME280;12726;49.148;8.582;2022-07-29T06:24:13;100157.25;;;22.71;60.59
24558;BME280;12726;49.148;8.582;2022-07-29T06:26:58;100155.91;;;22.69;59.90
24558;BME280;12726;49.148;8.582;2022-07-29T06:29:45;100160.16;;;22.61;60.51
24558;BME280;12726;49.148;8.582;2022-07-29T06:32:30;100159.06;;;22.43;61.10
24558;BME280;12726;49.148;8.582;2022-07-29T06:35:16;100159.41;;;22.55;61.41
24558;BME280;12726;49.148;8.582;2022-07-29T06:38:02;100163.31;;;22.73;60.90
24558;BME280;12726;49.148;8.582;2022-07-29T06:40:47;100161.41;;;22.69;61.25
24558;BME280;12726;49.148;8.582;2022-07-29T06:43:45;100164.38;;;22.72;60.72
24558;BME280;12726;49.148;8.582;2022-07-29T06:46:32;100170.19;;;23.03;59.35
24558;BME280;12726;49.148;8.582;2022-07-29T06:49:17;100168.59;;;24.03;57.27
24558;BME280;12726;49.148;8.582;2022-07-29T06:52:03;100173.28;;;24.88;53.86
24558;BME280;12726;49.148;8.582;2022-07-29T06:54:52;100170.94;;;24.59;54.58
24558;BME280;12726;49.148;8.582;2022-07-29T06:57:38;100176.34;;;24.14;54.57
24558;BME280;12726;49.148;8.582;2022-07-29T07:00:24;100177.97;;;24.15;55.34
24558;BME280;12726;49.148;8.582;2022-07-29T07:03:11;100182.25;;;24.08;56.11
24558;BME280;12726;49.148;8.582;2022-07-29T07:05:57;100176.03;;;24.02;55.31
24558;BME280;12726;49.148;8.582;2022-07-29T07:08:42;100174.81;;;23.95;55.65
24558;BME280;12726;49.148;8.582;2022-07-29T07:11:28;100174.22;;;24.61;53.51
24558;BME280;12726;49.148;8.582;2022-07-29T07:14:13;100187.41;;;24.73;54.20
24558;BME280;12726;49.148;8.582;2022-07-29T07:16:59;100183.44;;;25.54;51.45
24558;BME280;12726;49.148;8.582;2022-07-29T07:19:52;100184.09;;;25.91;50.89
24558;BME280;12726;49.148;8.582;2022-07-29T07:22:37;100183.25;;;26.38;49.41
24558;BME280;12726;49.148;8.582;2022-07-29T07:25:28;100178.22;;;26.66;48.28
24558;BME280;12726;49.148;8.582;2022-07-29T07:28:14;100181.63;;;27.15;47.52
24558;BME280;12726;49.148;8.582;2022-07-29T07:30:59;100181.31;;;26.73;47.52
24558;BME280;12726;49.148;8.582;2022-07-29T07:33:45;100182.63;;;26.93;47.55
24558;BME280;12726;49.148;8.582;2022-07-29T07:36:32;100185.06;;;27.03;46.65
24558;BME280;12726;49.148;8.582;2022-07-29T07:39:17;100185.63;;;27.90;45.76
24558;BME280;12726;49.148;8.582;2022-07-29T07:42:03;100187.38;;;27.94;44.29
24558;BME280;12726;49.148;8.582;2022-07-29T07:44:48;100186.22;;;27.66;44.93
24558;BME280;12726;49.148;8.582;2022-07-29T07:47:34;100178.19;;;27.82;45.32
24558;BME280;12726;49.148;8.582;2022-07-29T07:50:20;100182.28;;;28.85;43.79
24558;BME280;12726;49.148;8.582;2022-07-29T07:53:06;100183.16;;;28.76;43.47
24558;BME280;12726;49.148;8.582;2022-07-29T07:55:52;100191.81;;;27.87;43.71
24558;BME280;12726;49.148;8.582;2022-07-29T07:58:37;100191.72;;;26.85;46.87
24558;BME280;12726;49.148;8.582;2022-07-29T08:01:22;100190.38;;;26.31;48.45
24558;BME280;12726;49.148;8.582;2022-07-29T08:04:08;100189.78;;;26.42;48.58
24558;BME280;12726;49.148;8.582;2022-07-29T08:06:55;100175.13;;;27.28;47.41
24558;BME280;12726;49.148;8.582;2022-07-29T08:09:42;100177.38;;;28.19;45.23
24558;BME280;12726;49.148;8.582;2022-07-29T08:12:27;100184.28;;;27.66;45.23
24558;BME280;12726;49.148;8.582;2022-07-29T08:15:13;100185.88;;;27.21;45.19
24558;BME280;12726;49.148;8.582;2022-07-29T08:17:58;100190.47;;;27.93;45.42
24558;BME280;12726;49.148;8.582;2022-07-29T08:20:44;100190.84;;;28.92;44.14
24558;BME280;12726;49.148;8.582;2022-07-29T08:23:29;100190.91;;;28.62;44.09
24558;BME280;12726;49.148;8.582;2022-07-29T08:26:23;100191.16;;;28.69;43.53
24558;BME280;12726;49.148;8.582;2022-07-29T08:29:09;100195.13;;;28.39;43.90
24558;BME280;12726;49.148;8.582;2022-07-29T08:31:55;100200.00;;;27.83;45.50
24558;BME280;12726;49.148;8.582;2022-07-29T08:34:43;100192.94;;;27.48;46.27
24558;BME280;12726;49.148;8.582;2022-07-29T08:37:30;100192.97;;;27.31;46.44
24558;BME280;12726;49.148;8.582;2022-07-29T08:40:15;100194.22;;;27.50;46.40
24558;BME280;12726;49.148;8.582;2022-07-29T08:43:06;100190.94;;;28.33;43.63
24558;BME280;12726;49.148;8.582;2022-07-29T08:45:52;100191.94;;;28.49;44.69
24558;BME280;12726;49.148;8.582;2022-07-29T08:48:38;100197.81;;;27.97;44.09
24558;BME280;12726;49.148;8.582;2022-07-29T08:51:24;100201.22;;;28.53;43.59
24558;BME280;12726;49.148;8.582;2022-07-29T08:54:11;100197.81;;;29.43;41.41
24558;BME280;12726;49.148;8.582;2022-07-29T08:57:02;100203.59;;;30.19;40.04
24558;BME280;12726;49.148;8.582;2022-07-29T08:59:50;100200.69;;;30.80;39.22
24558;BME280;12726;49.148;8.582;2022-07-29T09:02:40;100194.78;;;31.37;38.90
24558;BME280;12726;49.148;8.582;2022-07-29T09:05:26;100201.72;;;31.16;35.73
24558;BME280;12726;49.148;8.582;2022-07-29T09:08:12;100202.66;;;30.80;36.73
24558;BME280;12726;49.148;8.582;2022-07-29T09:10:58;100196.13;;;30.60;37.52
24558;BME280;12726;49.148;8.582;2022-07-29T09:13:45;100203.91;;;30.06;37.02
24558;BME280;12726;49.148;8.582;2022-07-29T09:16:55;100199.25;;;29.61;37.11
24558;BME280;12726;49.148;8.582;2022-07-29T09:19:47;100204.13;;;29.76;35.99
24558;BME280;12726;49.148;8.582;2022-07-29T09:22:33;100202.50;;;29.87;37.04
24558;BME280;12726;49.148;8.582;2022-07-29T09:25:32;100208.63;;;29.69;37.00
24558;BME280;12726;49.148;8.582;2022-07-29T09:28:18;100208.16;;;29.79;37.70
24558;BME280;12726;49.148;8.582;2022-07-29T09:31:07;100219.09;;;30.32;36.56
24558;BME280;12726;49.148;8.582;2022-07-29T09:33:57;100203.34;;;30.89;34.61
24558;BME280;12726;49.148;8.582;2022-07-29T09:36:45;100195.59;;;31.54;33.74
24558;BME280;12726;49.148;8.582;2022-07-29T09:39:32;100198.13;;;31.59;33.23
24558;BME280;12726;49.148;8.582;2022-07-29T09:42:30;100198.75;;;31.83;33.16
24558;BME280;12726;49.148;8.582;2022-07-29T09:45:30;100194.03;;;31.68;33.15
24558;BME280;12726;49.148;8.582;2022-07-29T09:48:18;100195.09;;;31.95;33.30
24558;BME280;12726;49.148;8.582;2022-07-29T09:51:16;100184.78;;;31.80;33.15
24558;BME280;12726;49.148;8.582;2022-07-29T09:54:02;100187.09;;;31.62;33.03
24558;BME280;12726;49.148;8.582;2022-07-29T09:57:09;100185.69;;;32.35;32.69
24558;BME280;12726;49.148;8.582;2022-07-29T10:00:08;100191.66;;;32.52;31.61
24558;BME280;12726;49.148;8.582;2022-07-29T10:03:00;100187.38;;;32.93;30.97
24558;BME280;12726;49.148;8.582;2022-07-29T10:06:04;100190.00;;;33.05;30.95
24558;BME280;12726;49.148;8.582;2022-07-29T10:08:51;100188.09;;;32.90;31.20
24558;BME280;12726;49.148;8.582;2022-07-29T10:11:37;100186.19;;;32.94;30.49
24558;BME280;12726;49.148;8.582;2022-07-29T10:14:22;100174.91;;;32.68;29.60
24558;BME280;12726;49.148;8.582;2022-07-29T10:17:10;100182.53;;;32.90;30.32
24558;BME280;12726;49.148;8.582;2022-07-29T10:20:04;100178.38;;;32.46;30.67
24558;BME280;12726;49.148;8.582;2022-07-29T10:22:51;100178.56;;;32.72;29.60
24558;BME280;12726;49.148;8.582;2022-07-29T10:25:38;100167.31;;;33.26;30.07
24558;BME280;12726;49.148;8.582;2022-07-29T10:28:23;100170.59;;;33.13;29.49
24558;BME280;12726;49.148;8.582;2022-07-29T10:31:24;100167.81;;;33.13;29.47
24558;BME280;12726;49.148;8.582;2022-07-29T10:34:18;100169.06;;;33.34;29.65
24558;BME280;12726;49.148;8.582;2022-07-29T10:37:14;100157.78;;;33.50;29.17
24558;BME280;12726;49.148;8.582;2022-07-29T10:40:09;100155.31;;;33.45;28.12
24558;BME280;12726;49.148;8.582;2022-07-29T10:43:18;100149.78;;;33.07;28.10
24558;BME280;12726;49.148;8.582;2022-07-29T10:46:05;100154.84;;;33.43;28.66
24558;BME280;12726;49.148;8.582;2022-07-29T10:49:11;100166.59;;;33.52;26.32
24558;BME280;12726;49.148;8.582;2022-07-29T10:51:58;100152.63;;;33.29;25.94
24558;BME280;12726;49.148;8.582;2022-07-29T10:54:47;100155.16;;;32.77;27.32
24558;BME280;12726;49.148;8.582;2022-07-29T10:57:34;100159.84;;;32.92;28.46
24558;BME280;12726;49.148;8.582;2022-07-29T11:00:32;100154.31;;;33.15;28.44
24558;BME280;12726;49.148;8.582;2022-07-29T11:03:42;100154.53;;;33.71;27.43
24558;BME280;12726;49.148;8.582;2022-07-29T11:10:22;100142.66;;;34.27;27.81
24558;BME280;12726;49.148;8.582;2022-07-29T11:13:08;100136.91;;;34.16;28.31
24558;BME280;12726;49.148;8.582;2022-07-29T11:15:56;100144.59;;;34.23;27.76
24558;BME280;12726;49.148;8.582;2022-07-29T11:22:01;100145.69;;;34.18;28.23
24558;BME280;12726;49.148;8.582;2022-07-29T11:25:14;100140.50;;;34.16;27.70
24558;BME280;12726;49.148;8.582;2022-07-29T11:28:10;100134.75;;;34.32;26.57
24558;BME280;12726;49.148;8.582;2022-07-29T11:30:58;100128.16;;;34.47;27.80
24558;BME280;12726;49.148;8.582;2022-07-29T11:33:44;100130.47;;;34.38;26.96
24558;BME280;12726;49.148;8.582;2022-07-29T11:36:30;100118.41;;;34.08;27.33
24558;BME280;12726;49.148;8.582;2022-07-29T11:39:27;100129.97;;;33.80;27.22
24558;BME280;12726;49.148;8.582;2022-07-29T11:42:46;100125.47;;;33.98;27.99
24558;BME280;12726;49.148;8.582;2022-07-29T11:45:45;100130.84;;;34.40;27.19
24558;BME280;12726;49.148;8.582;2022-07-29T11:48:32;100136.22;;;34.23;25.46
24558;BME280;12726;49.148;8.582;2022-07-29T11:51:18;100135.59;;;34.36;27.29
24558;BME280;12726;49.148;8.582;2022-07-29T11:54:05;100127.56;;;34.31;26.87
24558;BME280;12726;49.148;8.582;2022-07-29T11:56:51;100129.06;;;34.55;26.67
24558;BME280;12726;49.148;8.582;2022-07-29T11:59:39;100119.22;;;34.68;26.24
24558;BME280;12726;49.148;8.582;2022-07-29T12:02:38;100119.19;;;34.65;26.64
24558;BME280;12726;49.148;8.582;2022-07-29T12:05:36;100114.78;;;34.30;27.35
24558;BME280;12726;49.148;8.582;2022-07-29T12:08:22;100114.84;;;34.11;28.43
24558;BME280;12726;49.148;8.582;2022-07-29T12:11:16;100120.25;;;34.23;27.51
24558;BME280;12726;49.148;8.582;2022-07-29T12:14:01;100099.91;;;34.56;26.77
24558;BME280;12726;49.148;8.582;2022-07-29T12:16:47;100102.09;;;33.61;27.66
24558;BME280;12726;49.148;8.582;2022-07-29T12:19:41;100114.38;;;33.30;28.29
24558;BME280;12726;49.148;8.582;2022-07-29T12:22:30;100109.06;;;33.02;29.25
24558;BME280;12726;49.148;8.582;2022-07-29T12:25:16;100126.41;;;32.53;28.98
24558;BME280;12726;49.148;8.582;2022-07-29T12:28:04;100126.59;;;31.75;29.50
24558;BME280;12726;49.148;8.582;2022-07-29T12:30:51;100132.22;;;31.78;29.36
24558;BME280;12726;49.148;8.582;2022-07-29T12:33:36;100129.97;;;31.37;30.05
24558;BME280;12726;49.148;8.582;2022-07-29T12:36:22;100123.97;;;30.91;30.84
24558;BME280;12726;49.148;8.582;2022-07-29T12:39:09;100123.47;;;30.73;31.93
24558;BME280;12726;49.148;8.582;2022-07-29T12:41:54;100120.03;;;30.92;30.70
24558;BME280;12726;49.148;8.582;2022-07-29T12:44:45;100119.22;;;30.92;31.88
24558;BME280;12726;49.148;8.582;2022-07-29T12:47:30;100110.75;;;30.72;31.48
24558;BME280;12726;49.148;8.582;2022-07-29T12:50:16;100124.66;;;30.32;32.10
24558;BME280;12726;49.148;8.582;2022-07-29T12:53:09;100123.97;;;30.23;32.25
24558;BME280;12726;49.148;8.582;2022-07-29T12:55:58;100114.09;;;30.38;32.12
24558;BME280;12726;49.148;8.582;2022-07-29T12:58:45;100118.22;;;30.56;32.67
24558;BME280;12726;49.148;8.582;2022-07-29T13:01:36;100108.94;;;30.64;31.82
24558;BME280;12726;49.148;8.582;2022-07-29T13:04:25;100120.19;;;30.44;32.32
24558;BME280;12726;49.148;8.582;2022-07-29T13:07:11;100116.53;;;30.27;33.04
24558;BME280;12726;49.148;8.582;2022-07-29T13:10:11;100118.31;;;30.08;32.73
24558;BME280;12726;49.148;8.582;2022-07-29T13:13:05;100107.00;;;29.76;33.45
24558;BME280;12726;49.148;8.582;2022-07-29T13:16:05;100122.03;;;29.63;34.04
24558;BME280;12726;49.148;8.582;2022-07-29T13:19:04;100109.09;;;29.67;33.33
24558;BME280;12726;49.148;8.582;2022-07-29T13:21:49;100123.78;;;29.68;34.17
24558;BME280;12726;49.148;8.582;2022-07-29T13:24:50;100127.13;;;29.61;33.91
24558;BME280;12726;49.148;8.582;2022-07-29T13:27:38;100128.38;;;29.64;34.48
24558;BME280;12726;49.148;8.582;2022-07-29T13:30:26;100128.25;;;29.84;33.74
24558;BME280;12726;49.148;8.582;2022-07-29T13:33:11;100135.22;;;29.90;32.59
24558;BME280;12726;49.148;8.582;2022-07-29T13:35:57;100130.97;;;30.05;33.19
24558;BME280;12726;49.148;8.582;2022-07-29T13:38:42;100130.00;;;30.25;31.98
24558;BME280;12726;49.148;8.582;2022-07-29T13:41:28;100124.44;;;30.25;31.91
24558;BME280;12726;49.148;8.582;2022-07-29T13:44:13;100126.47;;;30.41;32.19
24558;BME280;12726;49.148;8.582;2022-07-29T13:47:00;100123.53;;;30.49;31.30
24558;BME280;12726;49.148;8.582;2022-07-29T13:49:46;100121.09;;;30.60;31.65
24558;BME280;12726;49.148;8.582;2022-07-29T13:52:32;100115.09;;;30.58;30.38
24558;BME280;12726;49.148;8.582;2022-07-29T13:55:18;100116.59;;;30.55;30.89
24558;BME280;12726;49.148;8.582;2022-07-29T13:58:03;100121.47;;;30.46;30.81
24558;BME280;12726;49.148;8.582;2022-07-29T14:00:49;100114.09;;;30.38;31.00
24558;BME280;12726;49.148;8.582;2022-07-29T14:03:36;100111.31;;;30.38;30.70
24558;BME280;12726;49.148;8.582;2022-07-29T14:06:25;100106.09;;;30.36;30.45
24558;BME280;12726;49.148;8.582;2022-07-29T14:09:11;100104.19;;;30.25;30.56
24558;BME280;12726;49.148;8.582;2022-07-29T14:11:56;100104.59;;;30.39;29.88
24558;BME280;12726;49.148;8.582;2022-07-29T14:14:41;100105.03;;;30.41;30.27
24558;BME280;12726;49.148;8.582;2022-07-29T14:17:27;100100.31;;;30.69;30.38
24558;BME280;12726;49.148;8.582;2022-07-29T14:20:14;100106.19;;;30.80;29.65
24558;BME280;12726;49.148;8.582;2022-07-29T14:23:00;100102.53;;;30.76;28.58
24558;BME280;12726;49.148;8.582;2022-07-29T14:25:46;100117.31;;;30.52;29.70
24558;BME280;12726;49.148;8.582;2022-07-29T14:28:31;100102.22;;;30.65;28.46
24558;BME280;12726;49.148;8.582;2022-07-29T14:31:17;100099.84;;;30.52;28.73
24558;BME280;12726;49.148;8.582;2022-07-29T14:34:02;100115.94;;;30.34;27.74
24558;BME280;12726;49.148;8.582;2022-07-29T14:36:49;100106.97;;;30.25;29.14
24558;BME280;12726;49.148;8.582;2022-07-29T14:39:35;100104.06;;;30.21;28.22
24558;BME280;12726;49.148;8.582;2022-07-29T14:42:21;100109.44;;;30.02;28.54
24558;BME280;12726;49.148;8.582;2022-07-29T14:45:08;100121.22;;;29.87;29.39
24558;BME280;12726;49.148;8.582;2022-07-29T14:47:54;100115.31;;;29.88;28.76